createdAt,value
2018-04-18T00:02:10.927Z,14.10
2018-04-18T00:05:13.385Z,14.00
2018-04-18T00:08:16.606Z,14.10
2018-04-18T00:11:19.052Z,14.10
2018-04-18T00:14:22.275Z,14.10
2018-04-18T00:17:24.723Z,14.10
2018-04-18T00:20:27.177Z,14.10
2018-04-18T00:23:29.638Z,14.00
2018-04-18T00:26:32.094Z,13.90
2018-04-18T00:29:34.553Z,13.90
2018-04-18T00:32:37.001Z,13.80
2018-04-18T00:35:40.221Z,13.80
2018-04-18T00:38:42.678Z,13.80
2018-04-18T00:41:45.126Z,13.70
2018-04-18T00:44:48.351Z,13.60
2018-04-18T00:47:51.566Z,13.50
2018-04-18T00:50:54.025Z,13.50
2018-04-18T00:53:56.483Z,13.40
2018-04-18T00:56:58.937Z,13.30
2018-04-18T01:00:01.394Z,13.30
2018-04-18T01:03:03.845Z,13.30
2018-04-18T01:06:06.303Z,13.20
2018-04-18T01:09:08.753Z,13.30
2018-04-18T01:12:11.205Z,13.20
2018-04-18T01:15:13.663Z,13.20
2018-04-18T01:18:16.117Z,13.10
2018-04-18T01:21:18.578Z,13.10
2018-04-18T01:24:21.797Z,12.90
2018-04-18T01:27:24.246Z,12.90
2018-04-18T01:30:27.465Z,13.00
2018-04-18T01:33:29.924Z,13.00
2018-04-18T01:36:32.370Z,13.00
2018-04-18T01:39:34.822Z,13.00
2018-04-18T01:42:37.273Z,12.90
2018-04-18T01:45:39.731Z,12.80
2018-04-18T01:48:42.951Z,12.70
2018-04-18T01:51:45.406Z,12.60
2018-04-18T01:54:47.865Z,12.60
2018-04-18T01:57:50.318Z,12.50
2018-04-18T02:00:52.774Z,12.50
2018-04-18T02:03:55.290Z,12.50
2018-04-18T02:06:57.744Z,12.50
2018-04-18T02:10:00.202Z,12.50
2018-04-18T02:13:02.655Z,12.50
2018-04-18T02:16:05.110Z,12.60
2018-04-18T02:19:08.338Z,12.70
2018-04-18T02:22:10.790Z,12.60
2018-04-18T02:25:14.013Z,12.70
2018-04-18T02:28:16.471Z,12.70
2018-04-18T02:31:18.922Z,12.70
2018-04-18T02:34:22.145Z,12.70
2018-04-18T02:37:24.593Z,12.70
2018-04-18T02:40:27.818Z,12.70
2018-04-18T02:43:30.266Z,12.70
2018-04-18T02:46:33.494Z,12.70
2018-04-18T02:49:35.959Z,12.70
2018-04-18T02:52:38.403Z,12.70
2018-04-18T02:55:40.867Z,12.70
2018-04-18T02:58:43.313Z,12.70
2018-04-18T03:01:45.773Z,12.70
2018-04-18T03:04:48.227Z,12.70
2018-04-18T03:07:50.682Z,12.70
2018-04-18T03:10:53.138Z,12.70
2018-04-18T03:13:55.586Z,12.70
2018-04-18T03:16:58.050Z,12.80
2018-04-18T03:20:00.509Z,12.80
2018-04-18T03:23:02.959Z,12.80
2018-04-18T03:26:05.417Z,12.80
2018-04-18T03:29:07.866Z,12.70
2018-04-18T03:32:10.331Z,12.70
2018-04-18T03:35:12.790Z,12.60
2018-04-18T03:38:15.999Z,12.50
2018-04-18T03:41:18.462Z,12.50
2018-04-18T03:44:21.690Z,12.40
2018-04-18T03:47:24.160Z,12.30
2018-04-18T03:50:26.614Z,12.30
2018-04-18T03:53:29.834Z,12.20
2018-04-18T03:56:32.493Z,12.10
2018-04-18T03:59:34.957Z,12.10
2018-04-18T04:02:38.172Z,12.00
2018-04-18T04:05:40.633Z,11.90
2018-04-18T04:08:43.849Z,11.80
2018-04-18T04:11:46.319Z,11.80
2018-04-18T04:14:48.769Z,11.90
2018-04-18T04:18:04.022Z,11.90
2018-04-18T04:21:18.393Z,11.80
2018-04-18T04:24:32.837Z,11.80
2018-04-18T04:27:36.114Z,11.80
2018-04-18T04:30:38.566Z,11.70
2018-04-18T04:33:41.017Z,11.70
2018-04-18T04:36:44.242Z,11.90
2018-04-18T04:39:46.694Z,11.80
2018-04-18T04:42:49.922Z,12.00
2018-04-18T04:45:52.378Z,11.90
2018-04-18T04:48:54.825Z,12.00
2018-04-18T04:51:57.277Z,12.00
2018-04-18T04:54:59.738Z,12.00
2018-04-18T04:58:02.199Z,12.00
2018-04-18T05:01:04.666Z,12.00
2018-04-18T05:04:07.117Z,12.10
2018-04-18T05:07:10.337Z,12.40
2018-04-18T05:10:12.791Z,12.40
2018-04-18T05:13:16.018Z,12.60
2018-04-18T05:16:18.474Z,12.60
2018-04-18T05:19:20.929Z,12.70
2018-04-18T05:22:23.385Z,12.80
2018-04-18T05:25:25.838Z,12.90
2018-04-18T05:28:28.307Z,13.00
2018-04-18T05:31:30.758Z,13.10
2018-04-18T05:34:33.205Z,13.50
2018-04-18T05:37:35.666Z,13.70
2018-04-18T05:40:38.123Z,14.00
2018-04-18T05:43:40.579Z,15.30
2018-04-18T05:46:43.034Z,17.50
2018-04-18T05:49:46.250Z,21.70
2018-04-18T05:52:48.712Z,21.60
2018-04-18T05:55:51.171Z,23.20
2018-04-18T05:58:54.386Z,24.60
2018-04-18T06:01:56.852Z,24.60
2018-04-18T06:05:00.061Z,25.50
2018-04-18T06:08:02.523Z,25.50
2018-04-18T06:11:04.978Z,26.10
2018-04-18T06:14:08.193Z,27.20
2018-04-18T06:17:11.413Z,27.70
2018-04-18T06:20:13.866Z,27.60
2018-04-18T06:23:16.329Z,28.20
2018-04-18T06:26:19.552Z,28.50
2018-04-18T06:29:22.098Z,28.40
2018-04-18T06:32:24.554Z,28.70
2018-04-18T06:35:27.009Z,28.80
2018-04-18T06:38:29.462Z,29.40
2018-04-18T06:41:31.920Z,29.50
2018-04-18T06:44:35.142Z,30.10
2018-04-18T06:47:37.602Z,30.10
2018-04-18T06:50:40.149Z,30.50
2018-04-18T06:53:53.258Z,31.00
2018-04-18T06:56:55.722Z,31.30
2018-04-18T06:59:58.229Z,31.70
2018-04-18T07:03:00.647Z,32.10
2018-04-18T07:06:03.102Z,32.00
2018-04-18T07:09:06.322Z,32.70
2018-04-18T07:12:08.792Z,32.70
2018-04-18T07:15:11.243Z,33.00
2018-04-18T07:18:14.470Z,32.70
2018-04-18T07:21:16.937Z,32.70
2018-04-18T07:24:19.390Z,32.60
2018-04-18T07:27:22.641Z,32.50
2018-04-18T07:30:25.098Z,32.50
2018-04-18T07:33:27.562Z,32.50
2018-04-18T07:36:30.018Z,32.30
2018-04-18T07:39:32.470Z,32.50
2018-04-18T07:42:34.926Z,32.60
2018-04-18T07:45:37.373Z,32.90
2018-04-18T07:48:39.833Z,32.90
2018-04-18T07:51:43.053Z,33.80
2018-04-18T07:54:45.510Z,33.70
2018-04-18T07:57:47.961Z,33.90
2018-04-18T08:00:51.186Z,34.10
2018-04-18T08:03:53.659Z,34.00
2018-04-18T08:06:56.868Z,33.90
2018-04-18T08:09:59.319Z,33.90
2018-04-18T08:13:02.548Z,34.10
2018-04-18T08:16:04.998Z,34.10
2018-04-18T08:19:07.454Z,34.00
2018-04-18T08:22:10.682Z,32.50
2018-04-18T08:25:13.131Z,32.50
2018-04-18T08:28:16.353Z,31.20
2018-04-18T08:31:18.803Z,31.20
2018-04-18T08:34:22.031Z,30.80
2018-04-18T08:37:24.491Z,30.70
2018-04-18T08:40:26.938Z,30.50
2018-04-18T08:43:29.394Z,30.50
2018-04-18T08:46:31.855Z,30.50
2018-04-18T08:49:34.313Z,30.70
2018-04-18T08:52:36.769Z,30.80
2018-04-18T08:55:39.216Z,31.20
2018-04-18T08:58:41.678Z,31.40
2018-04-18T09:01:44.142Z,31.60
2018-04-18T09:04:46.593Z,31.40
2018-04-18T09:07:49.061Z,31.10
2018-04-18T09:10:52.256Z,30.20
2018-04-18T09:13:55.254Z,30.10
2018-04-18T09:16:57.717Z,29.90
2018-04-18T09:20:00.164Z,29.30
2018-04-18T09:23:03.394Z,28.70
2018-04-18T09:26:05.834Z,28.70
2018-04-18T09:29:08.290Z,28.50
2018-04-18T09:32:10.750Z,28.50
2018-04-18T09:35:13.201Z,28.20
2018-04-18T09:38:15.662Z,27.90
2018-04-18T09:41:18.114Z,27.80
2018-04-18T09:44:21.340Z,27.50
2018-04-18T09:47:23.801Z,27.40
2018-04-18T09:50:27.014Z,27.30
2018-04-18T09:53:29.479Z,27.30
2018-04-18T09:56:32.694Z,27.20
2018-04-18T09:59:35.154Z,27.20
2018-04-18T10:02:37.610Z,27.20
2018-04-18T10:05:40.826Z,27.00
2018-04-18T10:08:43.278Z,27.00
2018-04-18T10:11:45.729Z,26.50
2018-04-18T10:14:48.181Z,26.20
2018-04-18T10:17:50.638Z,26.20
2018-04-18T10:20:53.099Z,26.20
2018-04-18T10:23:56.224Z,26.30
2018-04-18T10:26:58.680Z,26.40
2018-04-18T10:30:01.139Z,26.20
2018-04-18T10:33:04.365Z,25.90
2018-04-18T10:36:06.818Z,25.90
2018-04-18T10:39:09.269Z,25.60
2018-04-18T10:42:11.729Z,25.40
2018-04-18T10:45:14.174Z,25.30
2018-04-18T10:48:16.634Z,25.20
2018-04-18T10:51:19.080Z,25.40
2018-04-18T10:54:21.533Z,25.20
2018-04-18T10:57:23.978Z,25.00
2018-04-18T11:00:26.435Z,24.90
2018-04-18T11:03:28.890Z,25.00
2018-04-18T11:06:31.342Z,24.80
2018-04-18T11:09:33.798Z,24.60
2018-04-18T11:12:36.257Z,24.70
2018-04-18T11:15:44.390Z,24.90
2018-04-18T11:18:46.845Z,25.00
2018-04-18T11:21:49.293Z,24.90
2018-04-18T11:24:52.523Z,25.00
2018-04-18T11:27:55.009Z,25.00
2018-04-18T11:30:57.457Z,25.00
2018-04-18T11:33:59.922Z,25.00
2018-04-18T11:37:03.146Z,24.80
2018-04-18T11:40:05.610Z,24.80
2018-04-18T11:43:08.073Z,24.80
2018-04-18T11:46:11.290Z,24.60
2018-04-18T11:49:13.760Z,24.60
2018-04-18T11:52:16.200Z,24.30
2018-04-18T11:55:18.653Z,24.30
2018-04-18T11:58:21.106Z,24.40
2018-04-18T12:01:23.558Z,24.20
2018-04-18T12:04:26.013Z,24.10
2018-04-18T12:07:29.230Z,24.00
2018-04-18T12:10:31.699Z,24.00
2018-04-18T12:13:34.922Z,23.70
2018-04-18T12:16:37.381Z,23.70
2018-04-18T12:19:39.833Z,23.70
2018-04-18T12:22:43.061Z,23.80
2018-04-18T12:25:45.497Z,23.80
2018-04-18T12:28:48.722Z,23.90
2018-04-18T12:31:51.169Z,23.80
2018-04-18T12:34:54.381Z,23.80
2018-04-18T12:37:56.842Z,23.70
2018-04-18T12:41:00.053Z,23.80
2018-04-18T12:44:02.521Z,23.80
2018-04-18T12:47:05.731Z,23.70
2018-04-18T12:50:08.185Z,23.70
2018-04-18T12:53:11.406Z,23.60
2018-04-18T12:56:13.855Z,23.60
2018-04-18T12:59:16.310Z,23.60
2018-04-18T13:02:18.761Z,23.60
2018-04-18T13:05:21.217Z,23.60
2018-04-18T13:08:23.673Z,23.50
2018-04-18T13:11:26.890Z,23.30
2018-04-18T13:14:29.343Z,23.30
2018-04-18T13:17:32.553Z,23.50
2018-04-18T13:20:35.003Z,23.50
2018-04-18T13:23:38.227Z,23.60
2018-04-18T13:26:40.678Z,23.60
2018-04-18T13:29:43.898Z,23.60
2018-04-18T13:32:46.341Z,23.50
2018-04-18T13:35:48.797Z,23.60
2018-04-18T13:38:51.253Z,23.50
2018-04-18T13:41:53.702Z,23.50
2018-04-18T13:44:56.154Z,23.60
2018-04-18T13:47:59.377Z,23.60
2018-04-18T13:51:01.850Z,23.60
2018-04-18T13:54:04.297Z,23.60
2018-04-18T13:57:07.518Z,23.50
2018-04-18T14:00:09.966Z,23.50
2018-04-18T14:03:13.177Z,23.40
2018-04-18T14:06:15.626Z,23.40
2018-04-18T14:09:18.084Z,23.40
2018-04-18T14:12:20.529Z,23.50
2018-04-18T14:15:22.986Z,23.50
2018-04-18T14:18:25.437Z,23.60
2018-04-18T14:21:27.877Z,23.50
2018-04-18T14:24:30.326Z,23.50
2018-04-18T14:27:32.773Z,23.50
2018-04-18T14:30:54.118Z,23.40
2018-04-18T14:33:56.570Z,23.40
2018-04-18T14:36:59.786Z,23.40
2018-04-18T14:40:02.250Z,23.40
2018-04-18T14:43:05.469Z,23.40
2018-04-18T14:46:07.914Z,23.40
2018-04-18T14:49:11.132Z,23.40
2018-04-18T14:52:13.574Z,23.40
2018-04-18T14:55:16.021Z,23.30
2018-04-18T14:58:18.462Z,23.30
2018-04-18T15:01:20.918Z,23.30
2018-04-18T15:04:24.142Z,23.30
2018-04-18T15:07:26.586Z,23.30
2018-04-18T15:10:29.809Z,23.30
2018-04-18T15:13:32.261Z,23.30
2018-04-18T15:16:35.482Z,23.30
2018-04-18T15:19:37.925Z,23.20
2018-04-18T15:22:41.151Z,23.30
2018-04-18T15:25:43.600Z,23.30
2018-04-18T15:28:46.814Z,23.30
2018-04-18T15:31:49.525Z,23.30
2018-04-18T15:34:51.979Z,23.30
2018-04-18T15:37:54.426Z,23.30
2018-04-18T15:40:57.644Z,23.30
2018-04-18T15:44:13.223Z,23.30
2018-04-18T15:47:15.665Z,23.20
2018-04-18T15:50:18.123Z,23.20
2018-04-18T15:53:20.570Z,23.20
2018-04-18T15:56:23.022Z,23.20
2018-04-18T15:59:25.474Z,23.10
2018-04-18T16:02:27.918Z,23.10
2018-04-18T16:05:30.370Z,23.10
2018-04-18T16:08:32.815Z,23.10
2018-04-18T16:11:36.027Z,23.10
2018-04-18T16:14:38.478Z,23.10
2018-04-18T16:17:40.929Z,23.00
2018-04-18T16:20:43.377Z,23.10
2018-04-18T16:23:45.821Z,23.10
2018-04-18T16:26:49.041Z,22.90
2018-04-18T16:29:51.495Z,22.90
2018-04-18T16:32:53.937Z,23.00
2018-04-18T16:35:56.393Z,23.00
2018-04-18T16:38:58.847Z,22.90
2018-04-18T16:42:01.289Z,22.90
2018-04-18T16:45:04.502Z,22.60
2018-04-18T16:48:06.954Z,22.60
2018-04-18T16:51:09.401Z,22.60
2018-04-18T16:54:11.855Z,22.50
2018-04-18T16:57:14.341Z,22.40
2018-04-18T17:00:16.761Z,22.30
2018-04-18T17:03:19.207Z,22.30
2018-04-18T17:06:21.657Z,22.20
2018-04-18T17:09:24.114Z,22.00
2018-04-18T17:12:26.557Z,22.00
2018-04-18T17:15:29.005Z,21.90
2018-04-18T17:18:31.450Z,21.80
2018-04-18T17:21:33.940Z,21.70
2018-04-18T17:24:37.128Z,21.60
2018-04-18T17:27:39.565Z,21.50
2018-04-18T17:30:42.017Z,21.50
2018-04-18T17:33:44.474Z,21.40
2018-04-18T17:36:46.930Z,21.40
2018-04-18T17:39:49.386Z,21.40
2018-04-18T17:42:51.835Z,21.30
2018-04-18T17:45:54.289Z,21.20
2018-04-18T17:48:56.741Z,21.20
2018-04-18T17:51:59.189Z,21.10
2018-04-18T17:55:01.646Z,21.00
2018-04-18T17:58:04.093Z,20.90
2018-04-18T18:01:06.542Z,20.80
2018-04-18T18:04:08.989Z,20.70
2018-04-18T18:07:12.209Z,20.60
2018-04-18T18:10:14.670Z,20.60
2018-04-18T18:13:17.109Z,20.50
2018-04-18T18:16:20.321Z,20.40
2018-04-18T18:19:22.766Z,20.30
2018-04-18T18:22:25.217Z,20.30
2018-04-18T18:25:27.676Z,20.20
2018-04-18T18:28:30.114Z,20.10
2018-04-18T18:31:32.601Z,20.00
2018-04-18T18:34:35.027Z,20.00
2018-04-18T18:37:37.485Z,19.90
2018-04-18T18:40:39.933Z,19.80
2018-04-18T18:43:42.391Z,19.70
2018-04-18T18:46:44.842Z,19.70
2018-04-18T18:49:47.346Z,19.60
2018-04-18T18:52:49.749Z,19.50
2018-04-18T18:55:52.965Z,19.30
2018-04-18T18:58:55.413Z,19.30
2018-04-18T19:01:58.631Z,19.10
2018-04-18T19:05:01.090Z,19.10
2018-04-18T19:08:04.299Z,19.10
2018-04-18T19:11:06.753Z,19.10
2018-04-18T19:14:09.203Z,19.10
2018-04-18T19:17:11.662Z,19.10
2018-04-18T19:20:14.122Z,19.10
2018-04-18T19:23:16.578Z,19.10
2018-04-18T19:26:19.047Z,19.10
2018-04-18T19:29:22.259Z,19.10
2018-04-18T19:32:24.722Z,19.10
2018-04-18T19:35:27.947Z,19.00
2018-04-18T19:38:30.394Z,19.00
2018-04-18T19:41:33.626Z,19.00
2018-04-18T19:44:36.070Z,19.00
2018-04-18T19:47:38.568Z,18.90
2018-04-18T19:50:41.754Z,18.80
2018-04-18T19:53:44.203Z,18.80
2018-04-18T19:56:46.657Z,18.80
2018-04-18T19:59:49.105Z,18.70
2018-04-18T20:02:51.557Z,18.60
2018-04-18T20:05:54.017Z,18.60
2018-04-18T20:08:57.225Z,18.50
2018-04-18T20:11:59.685Z,18.50
2018-04-18T20:15:02.901Z,18.40
2018-04-18T20:18:05.357Z,18.40
2018-04-18T20:21:08.590Z,18.30
2018-04-18T20:24:11.042Z,18.20
2018-04-18T20:27:13.494Z,18.20
2018-04-18T20:30:16.706Z,18.10
2018-04-18T20:33:19.170Z,18.00
2018-04-18T20:36:22.396Z,17.90
2018-04-18T20:39:24.841Z,17.90
2018-04-18T20:42:27.297Z,17.90
2018-04-18T20:45:29.753Z,17.80
2018-04-18T20:48:32.222Z,17.80
2018-04-18T20:51:34.679Z,17.70
2018-04-18T20:54:37.129Z,17.60
2018-04-18T20:57:40.358Z,17.60
2018-04-18T21:00:42.811Z,17.50
2018-04-18T21:03:45.265Z,17.60
2018-04-18T21:06:48.490Z,17.40
2018-04-18T21:09:50.932Z,17.40
2018-04-18T21:12:54.162Z,17.40
2018-04-18T21:15:56.618Z,17.40
2018-04-18T21:18:59.846Z,17.50
2018-04-18T21:22:02.296Z,17.40
2018-04-18T21:25:04.754Z,17.40
2018-04-18T21:28:07.207Z,17.40
2018-04-18T21:31:09.663Z,17.30
2018-04-18T21:34:12.118Z,17.30
2018-04-18T21:37:14.573Z,17.20
2018-04-18T21:40:17.786Z,17.20
2018-04-18T21:43:20.274Z,17.20
2018-04-18T21:46:22.722Z,17.20
2018-04-18T21:49:25.180Z,17.10
2018-04-18T21:52:27.631Z,17.10
2018-04-18T21:55:30.077Z,17.00
2018-04-18T21:58:32.543Z,17.00
2018-04-18T22:01:34.991Z,17.00
2018-04-18T22:04:37.449Z,16.90
2018-04-18T22:07:40.672Z,16.90
2018-04-18T22:10:43.886Z,16.80
2018-04-18T22:13:46.345Z,16.80
2018-04-18T22:16:49.582Z,16.80
2018-04-18T22:19:52.021Z,16.70
2018-04-18T22:22:54.481Z,16.80
2018-04-18T22:25:57.705Z,16.80
2018-04-18T22:29:00.157Z,16.80
2018-04-18T22:32:03.377Z,16.70
2018-04-18T22:35:05.843Z,16.60
2018-04-18T22:38:08.298Z,16.60
2018-04-18T22:41:10.749Z,16.60
2018-04-18T22:44:13.201Z,16.50
2018-04-18T22:47:15.665Z,16.40
2018-04-18T22:50:18.131Z,16.40
2018-04-18T22:53:20.582Z,16.40
2018-04-18T22:56:23.798Z,16.20
2018-04-18T22:59:26.254Z,16.20
2018-04-18T23:02:29.469Z,16.30
2018-04-18T23:05:31.922Z,16.20
2018-04-18T23:08:35.146Z,16.20
2018-04-18T23:11:37.602Z,16.10
2018-04-18T23:14:40.059Z,16.10
2018-04-18T23:17:42.506Z,16.10
2018-04-18T23:20:44.962Z,16.10
2018-04-18T23:23:47.423Z,16.00
2018-04-18T23:26:49.878Z,16.00
2018-04-18T23:29:52.346Z,15.90
2018-04-18T23:32:54.805Z,16.00
2018-04-18T23:35:57.258Z,15.90
2018-04-18T23:38:59.715Z,16.00
2018-04-18T23:42:02.161Z,15.90
2018-04-18T23:45:05.385Z,15.70
2018-04-18T23:48:07.836Z,15.70
2018-04-18T23:51:11.062Z,15.70
2018-04-18T23:54:13.524Z,15.60
2018-04-18T23:57:15.987Z,15.60
